Time;durP1;ratioP1;P1;durP2;ratioP2;P2;SDS_P1;SDS_P2;PMS_P1;PMS_P2;Temp;Humidity;BMP_temperature;BMP_pressure;BME280_temperature;BME280_humidity;BME280_pressure;Samples;Min_cycle;Max_cycle;Signal;HPM_P1;HPM_P2
2021/12/07 00:00:49;;;;;;;18.73;9.30;;;;;;;-2.46;100.00;94962.56;4991957;28;20588;-75
2021/12/07 00:03:15;;;;;;;19.48;8.82;;;;;;;-2.48;100.00;94969.72;4992762;28;20045;-75
2021/12/07 00:05:41;;;;;;;15.75;8.40;;;;;;;-2.50;100.00;94966.53;5007463;28;20129;-75
2021/12/07 00:08:07;;;;;;;19.13;8.82;;;;;;;-2.55;100.00;94966.34;5014695;28;20117;-74
2021/12/07 00:10:33;;;;;;;21.00;8.57;;;;;;;-2.61;100.00;94966.16;5000195;28;20042;-75
2021/12/07 00:12:58;;;;;;;18.77;8.35;;;;;;;-2.59;100.00;94975.47;5015060;28;20114;-75
2021/12/07 00:15:25;;;;;;;21.27;9.55;;;;;;;-2.54;100.00;94971.31;5000140;28;20046;-75
2021/12/07 00:17:51;;;;;;;16.38;7.57;;;;;;;-2.58;100.00;94964.19;4978370;28;20073;-75
2021/12/07 00:20:19;;;;;;;24.38;8.63;;;;;;;-2.63;100.00;94963.00;5009238;28;20114;-75
2021/12/07 00:22:48;;;;;;;18.98;7.93;;;;;;;-2.61;100.00;94961.00;5008987;28;20495;-74
2021/12/07 00:25:14;;;;;;;15.80;7.75;;;;;;;-2.57;100.00;94950.28;5011946;28;20056;-75
2021/12/07 00:27:40;;;;;;;17.27;8.25;;;;;;;-2.55;100.00;94953.47;4993903;28;20124;-75
2021/12/07 00:30:09;;;;;;;19.13;8.68;;;;;;;-2.50;100.00;94954.44;4992389;28;20566;-75
2021/12/07 00:32:39;;;;;;;15.88;7.43;;;;;;;-2.54;100.00;94949.88;5005149;28;20046;-75
2021/12/07 00:37:56;;;;;;;16.70;8.05;;;;;;;-2.50;100.00;94951.06;5014716;28;20034;-74
2021/12/07 00:40:22;;;;;;;15.15;6.93;;;;;;;-2.50;100.00;94940.75;5009381;28;20643;-74
2021/12/07 00:42:48;;;;;;;14.32;7.28;;;;;;;-2.48;100.00;94938.78;4992234;28;20050;-74
2021/12/07 00:45:18;;;;;;;13.10;6.38;;;;;;;-2.50;100.00;94931.25;4998628;28;20053;-74
2021/12/07 00:47:44;;;;;;;14.07;6.82;;;;;;;-2.49;100.00;94934.63;5009536;28;20053;-74
2021/12/07 00:50:10;;;;;;;12.85;6.35;;;;;;;-2.42;100.00;94932.81;5005703;28;20530;-74
2021/12/07 00:52:37;;;;;;;13.85;5.82;;;;;;;-2.45;100.00;94928.06;5003912;28;20053;-74
2021/12/07 00:55:08;;;;;;;13.63;5.63;;;;;;;-2.44;100.00;94929.66;5010409;28;20069;-74
2021/12/07 00:57:34;;;;;;;10.02;5.10;;;;;;;-2.42;100.00;94937.97;4999844;28;20041;-74
2021/12/07 01:00:03;;;;;;;11.00;5.15;;;;;;;-2.43;100.00;94936.38;4982099;28;20085;-74
2021/12/07 01:02:29;;;;;;;10.63;5.40;;;;;;;-2.43;100.00;94926.06;4993373;28;20508;-74
2021/12/07 01:05:02;;;;;;;11.18;5.53;;;;;;;-2.44;100.00;94929.66;5013714;28;20042;-73
2021/12/07 01:07:53;;;;;;;11.57;5.35;;;;;;;-2.45;100.00;94928.06;5000407;28;20049;-74
2021/12/07 01:26:45;;;;;;;8.35;3.72;;;;;;;-2.50;100.00;94910.66;5010151;28;20141;-74
2021/12/07 01:29:10;;;;;;;7.93;3.60;;;;;;;-2.50;100.00;94909.84;5012033;28;20531;-74
2021/12/07 01:37:38;;;;;;;6.80;2.72;;;;;;;-2.52;100.00;94898.97;5001676;28;20040;-73
2021/12/07 01:51:12;;;;;;;5.10;2.63;;;;;;;-2.52;100.00;94906.69;5020276;28;20119;-72
2021/12/07 02:01:06;;;;;;;4.97;2.55;;;;;;;-2.51;100.00;94911.63;5009628;28;20045;-74
2021/12/07 02:03:32;;;;;;;4.70;2.53;;;;;;;-2.51;100.00;94903.13;5012932;28;20053;-73
2021/12/07 02:05:58;;;;;;;7.57;2.10;;;;;;;-2.45;100.00;94905.66;5005902;28;20076;-73
2021/12/07 02:08:24;;;;;;;4.55;2.10;;;;;;;-2.42;100.00;94901.91;5006980;28;20074;-73
2021/12/07 02:10:54;;;;;;;4.47;2.00;;;;;;;-2.42;100.00;94901.91;5014914;28;20096;-74
2021/12/07 02:14:02;;;;;;;5.93;2.40;;;;;;;-2.43;100.00;94895.16;5020852;28;20050;-73
2021/12/07 02:16:08;;;;;;;5.05;2.30;;;;;;;-2.40;100.00;94901.69;5001647;28;20046;-73
2021/12/07 02:18:33;;;;;;;4.50;2.20;;;;;;;-2.40;100.00;94899.91;5007983;28;20526;-73
2021/12/07 02:21:14;;;;;;;4.82;2.17;;;;;;;-2.39;100.00;94896.34;5024996;28;20041;-73
2021/12/07 02:23:40;;;;;;;4.22;2.03;;;;;;;-2.39;100.00;94891.19;5018037;28;20060;-74
2021/12/07 02:26:05;;;;;;;4.60;2.38;;;;;;;-2.37;100.00;94883.25;5006371;28;20491;-74
2021/12/07 02:28:31;;;;;;;3.72;1.98;;;;;;;-2.36;100.00;94890.78;5025505;28;20068;-74
2021/12/07 02:30:56;;;;;;;3.60;1.85;;;;;;;-2.35;100.00;94882.06;5015593;28;20041;-73
2021/12/07 02:33:22;;;;;;;4.30;2.03;;;;;;;-2.33;100.00;94887.81;5005180;28;20423;-73
2021/12/07 02:35:47;;;;;;;4.93;2.05;;;;;;;-2.31;100.00;94888.38;5006860;28;20049;-73
2021/12/07 02:38:13;;;;;;;3.88;2.20;;;;;;;-2.31;100.00;94872.94;5007567;28;20076;-74
2021/12/07 02:40:38;;;;;;;4.38;1.80;;;;;;;-2.30;100.00;94869.34;5007687;28;20053;-73
2021/12/07 02:43:04;;;;;;;4.82;1.95;;;;;;;-2.31;100.00;94862.63;5008767;28;20045;-73
2021/12/07 02:45:30;;;;;;;3.53;1.75;;;;;;;-2.29;100.00;94870.91;4989464;28;20042;-73
2021/12/07 02:47:55;;;;;;;3.28;1.65;;;;;;;-2.28;100.00;94862.19;5002657;28;20067;-73
2021/12/07 02:50:21;;;;;;;3.42;1.80;;;;;;;-2.25;100.00;94855.06;5003696;28;20125;-73
2021/12/07 02:52:47;;;;;;;2.25;1.75;;;;;;;-2.24;100.00;94861.78;4994122;28;20998;-74
2021/12/07 02:55:13;;;;;;;2.67;1.80;;;;;;;-2.21;100.00;94866.53;4999213;28;20038;-73
2021/12/07 02:57:39;;;;;;;2.83;1.58;;;;;;;-2.17;100.00;94872.84;5001624;28;20149;-73
2021/12/07 03:00:15;;;;;;;3.35;1.70;;;;;;;-2.15;100.00;94866.50;5005618;28;20164;-73
2021/12/07 03:02:50;;;;;;;2.88;1.70;;;;;;;-2.15;100.00;94860.56;4989696;28;20061;-73
2021/12/07 03:26:42;;;;;;;2.50;1.60;;;;;;;-2.13;100.00;94889.50;4992389;28;20451;-73
2021/12/07 03:29:08;;;;;;;2.60;1.50;;;;;;;-2.07;100.00;94893.84;5000650;28;20113;-73
2021/12/07 03:31:34;;;;;;;2.75;1.88;;;;;;;-2.16;100.00;94900.22;5001451;28;20515;-74
2021/12/07 03:34:01;;;;;;;4.47;2.20;;;;;;;-2.05;100.00;94907.34;5000421;28;20048;-73
2021/12/07 03:36:28;;;;;;;4.25;2.30;;;;;;;-2.13;100.00;94904.97;5002452;28;20038;-73
2021/12/07 03:38:54;;;;;;;6.82;2.35;;;;;;;-2.19;100.00;94916.88;5004514;28;20042;-74
2021/12/07 03:41:20;;;;;;;6.20;2.47;;;;;;;-2.24;100.00;94908.19;5008255;28;20467;-74
2021/12/07 03:43:47;;;;;;;5.47;2.67;;;;;;;-2.20;100.00;94909.38;4989709;28;20507;-74
2021/12/07 03:46:13;;;;;;;5.68;1.77;;;;;;;-2.28;100.00;94911.19;5008612;28;20120;-74
2021/12/07 03:48:40;;;;;;;4.82;2.50;;;;;;;-2.27;100.00;94909.38;5010378;28;20108;-74
2021/12/07 03:51:06;;;;;;;5.18;2.58;;;;;;;-2.23;100.00;94904.63;5017907;28;20106;-74
2021/12/07 03:53:31;;;;;;;6.63;2.80;;;;;;;-2.23;100.00;94899.47;4996034;28;20495;-73
2021/12/07 03:55:58;;;;;;;3.58;2.15;;;;;;;-2.25;100.00;94898.88;5018187;28;20033;-73
2021/12/07 03:58:24;;;;;;;4.95;2.72;;;;;;;-2.28;100.00;94893.13;4991309;28;20400;-74
2021/12/07 04:00:50;;;;;;;6.50;2.80;;;;;;;-2.27;100.00;94899.88;5009791;28;20030;-73
2021/12/07 04:03:18;;;;;;;4.47;2.63;;;;;;;-2.30;100.00;94902.88;5009244;28;20041;-74
2021/12/07 04:05:47;;;;;;;4.90;2.70;;;;;;;-2.24;100.00;94906.41;5009700;28;20034;-74
2021/12/07 04:08:17;;;;;;;5.00;2.47;;;;;;;-2.23;100.00;94904.63;5009092;28;20042;-74
2021/12/07 04:10:44;;;;;;;4.82;2.40;;;;;;;-2.22;100.00;94895.91;5006233;28;20037;-74
2021/12/07 04:13:10;;;;;;;4.72;2.33;;;;;;;-2.25;100.00;94896.31;5016772;28;20050;-75
2021/12/07 04:15:35;;;;;;;5.60;2.80;;;;;;;-2.25;100.00;94902.25;5009047;28;20053;-73
2021/12/07 04:18:02;;;;;;;5.50;2.65;;;;;;;-2.20;100.00;94899.06;5008672;28;20116;-73
2021/12/07 04:20:28;;;;;;;5.10;2.63;;;;;;;-2.20;100.00;94893.91;5013782;28;20038;-74
2021/12/07 04:22:54;;;;;;;5.95;2.67;;;;;;;-2.18;100.00;94894.50;5022087;28;20045;-74
2021/12/07 04:25:20;;;;;;;4.10;2.15;;;;;;;-2.18;100.00;94891.91;5008737;28;20050;-74
2021/12/07 04:27:46;;;;;;;6.30;2.80;;;;;;;-2.17;100.00;94898.63;5003039;28;20037;-74
2021/12/07 04:30:18;;;;;;;4.63;2.40;;;;;;;-2.13;100.00;94897.25;4992733;28;20458;-74
2021/12/07 04:32:44;;;;;;;4.35;2.40;;;;;;;-2.11;100.00;94897.84;5009647;28;20495;-74
2021/12/07 04:35:11;;;;;;;15.75;4.88;;;;;;;-2.11;100.00;94892.69;4992999;28;20038;-73
2021/12/07 04:37:38;;;;;;;3.15;2.15;;;;;;;-2.07;100.00;94893.84;5002571;28;20046;-73
2021/12/07 04:40:06;;;;;;;6.30;2.97;;;;;;;-2.04;100.00;94883.13;5009437;28;20073;-74
2021/12/07 04:42:32;;;;;;;7.95;2.72;;;;;;;-1.98;100.00;94892.63;5014926;28;20052;-74
2021/12/07 04:45:01;;;;;;;4.15;2.20;;;;;;;-2.00;100.00;94899.75;4991237;28;20045;-73
2021/12/07 04:47:42;;;;;;;4.78;2.50;;;;;;;-1.90;100.00;94893.38;5004894;28;20048;-73
2021/12/07 04:58:41;;;;;;;3.20;1.80;;;;;;;-1.70;100.00;94901.78;4985766;28;20057;-74
2021/12/07 05:01:10;;;;;;;3.70;1.58;;;;;;;-1.67;100.00;94909.13;5017225;28;20836;-74
2021/12/07 05:03:36;;;;;;;2.22;1.55;;;;;;;-1.61;100.00;94913.47;5012020;28;20045;-73
2021/12/07 05:06:03;;;;;;;5.43;1.67;;;;;;;-1.58;100.00;94907.88;4989263;28;20138;-73
2021/12/07 05:08:43;;;;;;;3.25;1.60;;;;;;;-1.53;100.00;94909.06;4992921;28;20128;-74
2021/12/07 05:13:49;;;;;;;1.15;1.00;;;;;;;-1.50;100.00;94899.09;5008627;28;20116;-74
2021/12/07 05:23:53;;;;;;;2.35;1.55;;;;;;;-1.40;100.00;94908.97;5007130;28;20037;-74
2021/12/07 05:24:36;;;;;;;4.10;1.50;;;;;;;-1.40;100.00;94919.28;5007941;28;20038;-74
2021/12/07 05:37:52;;;;;;;4.22;1.50;;;;;;;-1.16;100.00;94945.38;5015256;28;20100;-74
2021/12/07 05:40:20;;;;;;;2.25;1.40;;;;;;;-1.09;100.00;94953.84;4991704;28;20080;-74
2021/12/07 05:42:47;;;;;;;2.45;1.30;;;;;;;-1.06;100.00;94943.09;4994057;28;20046;-74
2021/12/07 05:45:17;;;;;;;2.55;1.42;;;;;;;-1.02;100.00;94941.69;4999717;28;20518;-74
2021/12/07 05:47:42;;;;;;;3.78;1.50;;;;;;;-1.01;100.00;94943.25;4990104;28;20046;-73
2021/12/07 05:50:10;;;;;;;4.72;1.70;;;;;;;-1.09;100.00;94949.47;5006932;28;20077;-74
2021/12/07 05:52:36;;;;;;;3.28;1.40;;;;;;;-1.03;100.00;94955.59;5010624;28;20124;-73
2021/12/07 05:55:03;;;;;;;2.05;1.30;;;;;;;-0.97;100.00;94944.41;4991852;28;20039;-73
2021/12/07 05:57:29;;;;;;;4.80;1.60;;;;;;;-0.94;100.00;94949.16;5009101;28;20177;-74
2021/12/07 05:59:54;;;;;;;3.33;1.35;;;;;;;-0.93;100.00;94939.63;5013211;28;20569;-74
2021/12/07 06:02:20;;;;;;;3.45;1.77;;;;;;;-1.00;100.00;94955.16;5012358;28;20091;-74
2021/12/07 06:04:45;;;;;;;3.50;2.10;;;;;;;-0.90;100.00;94945.16;5004516;28;20112;-74
2021/12/07 06:07:11;;;;;;;1.55;1.08;;;;;;;-0.97;100.00;94944.41;5003156;28;20435;-74
2021/12/07 06:09:38;;;;;;;3.05;1.63;;;;;;;-0.92;100.00;94952.34;5007105;28;20042;-73
2021/12/07 06:12:04;;;;;;;2.45;1.20;;;;;;;-0.89;100.00;94945.94;5003166;28;20521;-74
2021/12/07 06:14:34;;;;;;;3.97;1.70;;;;;;;-0.81;100.00;94952.66;5019492;28;20505;-74
2021/12/07 06:17:00;;;;;;;1.75;1.08;;;;;;;-0.77;100.00;94958.97;4993417;28;20100;-74
2021/12/07 06:19:26;;;;;;;3.17;1.70;;;;;;;-0.80;100.00;94954.25;4988689;28;20038;-74
2021/12/07 06:21:51;;;;;;;2.90;1.77;;;;;;;-0.78;100.00;94962.56;5009332;28;20503;-74
2021/12/07 06:24:17;;;;;;;2.00;1.40;;;;;;;-0.80;100.00;94959.41;5009581;28;20081;-74
2021/12/07 06:26:42;;;;;;;4.53;1.20;;;;;;;-0.66;100.00;94954.91;5008104;28;20758;-73
2021/12/07 06:29:08;;;;;;;3.22;1.65;;;;;;;-0.72;100.00;94961.69;5007512;28;20581;-74
2021/12/07 06:31:34;;;;;;;2.58;1.65;;;;;;;-0.68;100.00;94970.63;5005464;28;20053;-73
2021/12/07 06:33:59;;;;;;;4.63;1.50;;;;;;;-0.82;100.00;94974.31;5014132;28;20046;-74
2021/12/07 06:36:25;;;;;;;3.80;1.88;;;;;;;-0.69;100.00;94971.59;4999022;28;20087;-74
2021/12/07 06:38:51;;;;;;;3.08;1.77;;;;;;;-0.61;100.00;94981.69;4991439;28;20049;-74
2021/12/07 06:41:16;;;;;;;2.15;1.27;;;;;;;-0.58;100.00;94983.84;5006413;28;20042;-74
2021/12/07 06:43:43;;;;;;;3.90;1.55;;;;;;;-0.46;100.00;94990.91;5008040;28;20096;-74
2021/12/07 06:46:10;;;;;;;5.25;1.70;;;;;;;-0.49;100.00;94986.16;5003009;28;20045;-74
2021/12/07 06:48:36;;;;;;;3.67;1.73;;;;;;;-0.41;100.00;94988.50;5002844;28;20037;-74
2021/12/07 06:51:03;;;;;;;3.40;1.90;;;;;;;-0.49;100.00;94996.50;5005372;28;20041;-74
2021/12/07 06:53:36;;;;;;;3.72;2.05;;;;;;;-0.48;100.00;94998.09;5011606;28;20053;-74
2021/12/07 06:56:04;;;;;;;7.13;2.30;;;;;;;-0.39;100.00;95007.16;5010909;28;20042;-74
2021/12/07 06:58:30;;;;;;;4.40;1.92;;;;;;;-0.38;100.00;95008.75;4994845;28;20050;-75
2021/12/07 07:00:55;;;;;;;5.40;2.30;;;;;;;-0.33;100.00;95016.66;5017491;28;20046;-75
2021/12/07 07:03:21;;;;;;;3.65;1.90;;;;;;;-0.42;100.00;95007.59;5028024;28;20050;-74
2021/12/07 07:05:46;;;;;;;6.07;2.10;;;;;;;-0.45;100.00;95008.78;4996709;28;20041;-74
2021/12/07 07:08:12;;;;;;;3.78;1.95;;;;;;;-0.46;100.00;95011.59;5026618;28;20042;-74
2021/12/07 07:10:37;;;;;;;4.60;2.25;;;;;;;-0.32;100.00;95022.63;5027232;28;20065;-74
2021/12/07 07:13:04;;;;;;;3.35;1.92;;;;;;;-0.30;100.00;95030.94;5011082;28;20084;-74
2021/12/07 07:15:29;;;;;;;4.20;2.08;;;;;;;-0.33;100.00;95021.84;5021065;28;20053;-74
2021/12/07 07:17:55;;;;;;;8.07;2.20;;;;;;;-0.32;100.00;95033.75;5011278;28;20038;-74
2021/12/07 07:20:22;;;;;;;3.33;1.88;;;;;;;-0.28;100.00;95029.72;5010380;28;20104;-74
2021/12/07 07:22:47;;;;;;;5.78;1.85;;;;;;;-0.35;100.00;95045.28;5011684;28;20042;-74
2021/12/07 07:25:14;;;;;;;5.50;2.35;;;;;;;-0.23;100.00;95037.66;5025742;28;20049;-74
2021/12/07 07:27:40;;;;;;;3.22;2.00;;;;;;;-0.20;100.00;95047.56;5011762;28;20049;-74
2021/12/07 07:30:07;;;;;;;9.50;2.20;;;;;;;-0.21;100.00;95045.97;5013453;28;20388;-74
2021/12/07 07:32:33;;;;;;;5.20;2.10;;;;;;;-0.16;100.00;95044.56;5008212;28;20613;-75
2021/12/07 07:34:59;;;;;;;6.70;2.13;;;;;;;-0.20;100.00;95050.16;5016556;28;20049;-74
2021/12/07 07:37:24;;;;;;;4.25;2.25;;;;;;;-0.33;100.00;95058.03;5009905;28;20038;-75
2021/12/07 07:39:50;;;;;;;4.05;2.03;;;;;;;-0.11;100.00;95055.06;5007353;28;20492;-75
2021/12/07 07:42:16;;;;;;;4.18;2.10;;;;;;;-0.08;100.00;95059.81;5006561;28;20046;-74
2021/12/07 07:44:41;;;;;;;5.32;1.98;;;;;;;-0.07;100.00;95066.53;5003384;28;20093;-74
2021/12/07 07:47:07;;;;;;;4.47;2.03;;;;;;;-0.14;100.00;95060.63;5003617;28;20080;-74
2021/12/07 07:49:32;;;;;;;4.03;1.90;;;;;;;-0.05;100.00;95074.91;5007282;28;20069;-75
2021/12/07 07:51:58;;;;;;;7.90;2.25;;;;;;;-0.03;100.00;95078.06;5003132;28;20049;-74
2021/12/07 07:54:24;;;;;;;2.53;1.85;;;;;;;0.04;100.00;95078.78;5006793;28;20049;-74
2021/12/07 07:56:50;;;;;;;3.28;2.10;;;;;;;0.10;100.00;95083.13;4999434;28;20045;-76
2021/12/07 07:59:15;;;;;;;5.13;2.00;;;;;;;0.07;100.00;95088.72;4995575;28;20046;-75
2021/12/07 08:01:41;;;;;;;3.03;1.95;;;;;;;0.01;100.00;95084.38;5004187;28;20092;-75
2021/12/07 08:04:07;;;;;;;4.80;2.00;;;;;;;0.04;100.00;95083.19;5008062;28;20129;-75
2021/12/07 08:06:34;;;;;;;4.25;2.00;;;;;;;0.03;100.00;95087.56;5008898;28;20042;-73
2021/12/07 08:08:59;;;;;;;4.80;2.00;;;;;;;0.01;100.00;95084.38;5004275;28;20370;-73
2021/12/07 08:11:25;;;;;;;5.28;2.00;;;;;;;-0.01;100.00;95089.00;5004287;28;20123;-73
2021/12/07 08:13:51;;;;;;;3.35;1.75;;;;;;;0.00;100.00;95088.00;5004455;28;20046;-75
2021/12/07 08:16:17;;;;;;;4.85;2.15;;;;;;;0.02;100.00;95088.56;4999958;28;20046;-76
2021/12/07 08:18:44;;;;;;;4.38;1.75;;;;;;;0.06;100.00;95092.31;5009648;28;20042;-75
2021/12/07 08:21:10;;;;;;;9.02;1.90;;;;;;;0.10;100.00;95083.13;5009930;28;20046;-77
2021/12/07 08:23:37;;;;;;;4.55;2.10;;;;;;;0.14;100.00;95094.63;5003758;28;20046;-76
2021/12/07 08:26:03;;;;;;;4.50;2.20;;;;;;;0.16;100.00;95092.59;5004483;28;20041;-79
2021/12/07 08:28:29;;;;;;;4.03;2.00;;;;;;;0.22;100.00;95087.59;5011499;28;20046;-77
2021/12/07 08:30:54;;;;;;;3.35;2.13;;;;;;;0.20;100.00;95098.13;5009153;28;20061;-77
2021/12/07 08:33:20;;;;;;;4.53;1.80;;;;;;;0.15;100.00;95101.38;4990358;28;20129;-77
2021/12/07 08:35:47;;;;;;;5.55;1.90;;;;;;;0.06;100.00;95092.31;4993445;28;20046;-77
2021/12/07 08:38:13;;;;;;;6.22;2.10;;;;;;;0.05;100.00;95100.28;5004326;28;20038;-78
2021/12/07 08:40:39;;;;;;;7.22;2.40;;;;;;;0.21;100.00;95104.13;5008321;28;20041;-79
2021/12/07 08:43:11;;;;;;;4.93;1.90;;;;;;;0.24;100.00;95108.88;4998816;28;20112;-78
2021/12/07 08:45:38;;;;;;;5.93;2.47;;;;;;;0.24;100.00;95108.88;5008127;28;20132;-78
2021/12/07 08:48:04;;;;;;;5.30;2.65;;;;;;;0.16;100.00;95113.31;5002806;28;20062;-78
2021/12/07 08:50:31;;;;;;;5.15;2.28;;;;;;;0.31;100.00;95105.19;5011009;28;20637;-78
2021/12/07 08:53:02;;;;;;;5.20;2.30;;;;;;;0.33;100.00;95102.38;4995836;28;20204;-75
2021/12/07 09:01:00;;;;;;;5.50;2.10;;;;;;;0.46;100.00;95107.44;5008218;28;20422;-76
2021/12/07 09:03:25;;;;;;;4.90;1.88;;;;;;;0.50;100.00;95111.19;5010870;28;20180;-77
2021/12/07 09:05:51;;;;;;;6.68;2.00;;;;;;;0.58;100.00;95115.28;5008139;28;20566;-75
2021/12/07 09:08:18;;;;;;;5.18;2.20;;;;;;;0.68;99.93;95122.56;5005675;28;20042;-75
2021/12/07 09:10:44;;;;;;;5.25;2.40;;;;;;;0.78;100.00;95125.44;4984753;28;20117;-76
2021/12/07 09:13:09;;;;;;;3.70;1.90;;;;;;;0.92;98.97;95125.25;4992317;28;20120;-74
2021/12/07 09:15:36;;;;;;;4.60;2.15;;;;;;;0.92;98.32;95130.44;4999797;28;20034;-76
2021/12/07 09:18:02;;;;;;;3.83;2.25;;;;;;;0.79;99.73;95137.38;5009039;28;20042;-75
2021/12/07 09:20:29;;;;;;;4.13;2.40;;;;;;;0.76;100.00;95148.19;4991055;28;20053;-75
2021/12/07 09:22:55;;;;;;;4.53;2.22;;;;;;;0.88;99.42;95148.25;5017136;28;20053;-76
2021/12/07 09:25:21;;;;;;;4.95;2.30;;;;;;;0.82;99.25;95152.50;4985751;28;20049;-77
2021/12/07 09:27:47;;;;;;;17.60;2.55;;;;;;;0.66;100.00;95147.88;5007408;28;20037;-76
2021/12/07 09:30:15;;;;;;;9.57;2.85;;;;;;;0.64;100.00;95147.31;4991223;28;20461;-77
2021/12/07 09:32:42;;;;;;;5.63;2.30;;;;;;;0.69;99.83;95157.81;4988355;28;20066;-76
2021/12/07 09:35:08;;;;;;;10.07;2.47;;;;;;;0.59;100.00;95147.13;5006731;28;20046;-76
2021/12/07 09:37:36;;;;;;;5.20;2.05;;;;;;;0.79;99.55;95152.91;5000206;28;20054;-76
2021/12/07 09:40:09;;;;;;;3.42;1.98;;;;;;;1.51;96.73;95151.47;4996332;28;20496;-75
2021/12/07 09:42:35;;;;;;;4.90;2.40;;;;;;;3.35;88.58;95145.28;5009158;28;20045;-76
2021/12/07 09:45:00;;;;;;;3.92;2.22;;;;;;;3.76;87.94;95152.00;5002535;28;20050;-76
2021/12/07 09:47:26;;;;;;;4.65;1.98;;;;;;;2.12;91.21;95154.72;5005066;28;20046;-77
2021/12/07 09:49:52;;;;;;;3.22;1.92;;;;;;;1.32;95.20;95145.50;4990804;28;20050;-78
2021/12/07 09:52:18;;;;;;;4.75;2.22;;;;;;;1.23;97.80;95152.00;5007718;28;20117;-77
2021/12/07 09:54:43;;;;;;;8.25;2.83;;;;;;;3.54;88.06;95149.28;5007231;28;20116;-77
2021/12/07 09:57:11;;;;;;;4.25;2.03;;;;;;;3.31;85.90;95149.41;4997475;28;20049;-77
2021/12/07 09:59:37;;;;;;;6.30;2.22;;;;;;;4.10;85.08;95146.03;5003555;28;20169;-78
2021/12/07 10:02:06;;;;;;;3.70;1.90;;;;;;;4.78;80.74;95145.94;5003462;28;20116;-78
2021/12/07 10:04:32;;;;;;;3.33;1.90;;;;;;;4.69;80.90;95137.75;5003535;28;20046;-78
2021/12/07 10:06:58;;;;;;;8.98;2.00;;;;;;;5.23;77.85;95142.31;5003401;28;20038;-78
2021/12/07 10:09:24;;;;;;;3.20;1.98;;;;;;;4.29;81.46;95144.75;4986749;28;20121;-78
2021/12/07 10:11:54;;;;;;;3.80;1.83;;;;;;;5.19;79.98;95143.84;5009465;28;20053;-78
2021/12/07 10:14:20;;;;;;;4.38;1.90;;;;;;;3.64;83.42;95144.25;5012645;28;20045;-79
2021/12/07 10:16:49;;;;;;;5.22;2.05;;;;;;;3.08;87.32;95151.03;5007068;28;20044;-78
2021/12/07 10:19:28;;;;;;;4.25;1.98;;;;;;;3.60;86.47;95153.53;5005962;28;20041;-79
2021/12/07 10:22:10;;;;;;;6.38;1.67;;;;;;;4.78;77.64;95145.94;5001689;28;20049;-78
2021/12/07 10:24:46;;;;;;;4.35;1.90;;;;;;;5.80;76.89;95140.28;5000610;28;20096;-79
2021/12/07 10:27:12;;;;;;;3.30;1.80;;;;;;;6.65;71.93;95135.19;5006947;28;20045;-78
2021/12/07 10:29:39;;;;;;;4.13;2.10;;;;;;;6.41;71.84;95130.31;5012828;28;20901;-79
2021/12/07 10:32:07;;;;;;;4.55;1.70;;;;;;;5.73;72.58;95136.03;5004503;28;20046;-78
2021/12/07 10:34:36;;;;;;;5.43;2.15;;;;;;;6.22;70.78;95136.97;4990626;28;20385;-78
2021/12/07 10:37:17;;;;;;;2.85;1.75;;;;;;;6.88;70.11;95127.94;5000481;28;20050;-78
2021/12/07 10:39:48;;;;;;;3.42;1.45;;;;;;;6.79;71.83;95129.50;4987937;28;20049;-77
2021/12/07 10:42:19;;;;;;;3.83;1.92;;;;;;;8.27;69.64;95126.38;4994610;28;20097;-77
2021/12/07 10:44:44;;;;;;;4.88;1.92;;;;;;;7.99;65.13;95132.94;4990934;28;20490;-79
2021/12/07 10:47:12;;;;;;;5.18;2.10;;;;;;;8.03;64.17;95135.81;5010802;28;20042;-77
2021/12/07 10:49:44;;;;;;;6.63;1.60;;;;;;;5.77;69.01;95136.31;5002481;28;20049;-78
2021/12/07 10:52:20;;;;;;;9.05;2.10;;;;;;;6.52;70.33;95130.38;5005527;28;20443;-78
2021/12/07 10:55:15;;;;;;;4.40;1.80;;;;;;;7.39;65.52;95143.84;5007755;28;20037;-78
2021/12/07 10:57:54;;;;;;;4.82;1.90;;;;;;;7.89;64.75;95130.31;4999744;28;20131;-78
2021/12/07 11:00:26;;;;;;;2.78;1.67;;;;;;;8.08;61.69;95134.00;5007899;28;20089;-78
2021/12/07 11:03:10;;;;;;;3.60;2.03;;;;;;;6.70;67.32;95148.25;5013923;28;20037;-79
2021/12/07 11:05:37;;;;;;;7.90;2.10;;;;;;;4.90;71.75;95143.22;5002770;28;20034;-75
2021/12/07 11:08:05;;;;;;;9.20;2.17;;;;;;;3.97;76.87;95147.91;5003038;28;20038;-77
2021/12/07 11:10:45;;;;;;;3.08;1.30;;;;;;;3.98;76.98;95154.72;5006177;28;20149;-76
2021/12/07 11:13:15;;;;;;;2.58;1.50;;;;;;;3.77;76.89;95147.59;5002905;28;20050;-76
2021/12/07 11:15:54;;;;;;;6.18;2.08;;;;;;;3.67;81.96;95147.44;5003145;28;20042;-75
2021/12/07 11:18:29;;;;;;;6.70;2.05;;;;;;;3.66;78.11;95151.03;5006274;28;20405;-78
2021/12/07 11:21:01;;;;;;;4.97;2.00;;;;;;;3.10;81.87;95136.78;5009178;28;20049;-77
2021/12/07 11:23:32;;;;;;;3.60;2.00;;;;;;;2.95;83.87;95139.88;5007598;28;20049;-77
2021/12/07 11:31:23;;;;;;;3.30;2.05;;;;;;;2.91;83.55;95125.75;5007286;28;20060;-79
2021/12/07 11:34:11;;;;;;;4.38;1.90;;;;;;;2.64;83.73;95124.69;4998360;28;20045;-78
2021/12/07 11:37:01;;;;;;;8.93;2.33;;;;;;;2.47;86.96;95129.78;4997648;28;20058;-81
2021/12/07 11:39:26;;;;;;;3.80;1.90;;;;;;;2.63;84.67;95123.09;5018475;28;20098;-79
2021/12/07 11:42:05;;;;;;;4.53;1.80;;;;;;;2.54;84.63;95128.66;5016875;28;20042;-80
2021/12/07 11:44:36;;;;;;;4.50;1.92;;;;;;;2.36;86.66;95124.38;5005747;28;20056;-80
2021/12/07 11:47:04;;;;;;;4.35;1.90;;;;;;;2.24;87.23;95126.97;5003317;28;20046;-81
2021/12/07 11:49:33;;;;;;;2.78;1.77;;;;;;;2.21;87.48;95132.63;4999771;28;20045;-81
2021/12/07 11:52:02;;;;;;;4.80;2.10;;;;;;;2.22;88.17;95129.00;5009996;28;20044;-79
2021/12/07 11:54:40;;;;;;;8.18;2.70;;;;;;;2.27;87.82;95130.13;4986607;28;20632;-79
2021/12/07 11:57:09;;;;;;;10.82;2.30;;;;;;;2.06;89.90;95125.25;4988428;28;20049;-78
2021/12/07 11:59:35;;;;;;;3.42;1.85;;;;;;;2.11;89.49;95116.78;5006820;28;20045;-77
2021/12/07 12:02:01;;;;;;;6.78;2.40;;;;;;;2.60;85.82;95119.13;5007227;28;20079;-78
2021/12/07 12:04:27;;;;;;;3.25;2.00;;;;;;;2.25;89.21;95112.97;4989653;28;20092;-78
2021/12/07 12:06:55;;;;;;;4.32;1.80;;;;;;;2.21;86.50;95108.44;5008965;28;20046;-77
2021/12/07 12:09:23;;;;;;;5.68;1.90;;;;;;;2.02;86.39;95111.16;4999559;28;20046;-78
2021/12/07 12:11:54;;;;;;;4.10;1.35;;;;;;;2.32;85.15;95122.47;5003596;28;20057;-79
2021/12/07 12:14:39;;;;;;;3.33;1.58;;;;;;;2.18;88.57;95122.66;5003837;28;20034;-79
2021/12/07 12:17:34;;;;;;;4.53;1.75;;;;;;;2.13;87.23;95125.16;5003640;28;20554;-79
2021/12/07 12:20:12;;;;;;;6.20;1.90;;;;;;;2.08;87.75;95109.47;5007758;28;20053;-78
2021/12/07 12:22:42;;;;;;;5.97;2.63;;;;;;;2.18;88.46;95112.28;5007374;28;20591;-79
2021/12/07 12:25:15;;;;;;;6.07;2.20;;;;;;;2.53;88.06;95116.69;4980264;28;20057;-79
2021/12/07 12:27:42;;;;;;;4.28;2.05;;;;;;;3.98;81.78;95107.84;5007053;28;20097;-79
2021/12/07 12:30:46;;;;;;;2.85;1.50;;;;;;;3.80;79.08;95101.06;5005432;28;20046;-78
2021/12/07 12:33:14;;;;;;;4.60;1.88;;;;;;;3.76;79.67;95099.16;4910390;29;20092;-79
2021/12/07 12:35:50;;;;;;;2.17;1.48;;;;;;;3.56;81.26;95095.22;4893684;29;20548;-79
2021/12/07 12:38:30;;;;;;;5.30;1.85;;;;;;;2.91;83.93;95094.56;4959547;28;20136;-79
2021/12/07 12:40:55;;;;;;;6.93;2.20;;;;;;;3.09;82.18;95105.84;4979509;28;20050;-79
2021/12/07 12:43:41;;;;;;;5.82;1.80;;;;;;;3.31;80.63;95102.56;5008664;28;20117;-79
2021/12/07 12:46:10;;;;;;;7.03;2.00;;;;;;;3.32;79.65;95098.94;4988886;28;20573;-79
2021/12/07 12:48:35;;;;;;;3.67;1.83;;;;;;;3.16;79.66;95096.09;4992443;28;20038;-79
2021/12/07 12:51:04;;;;;;;5.00;2.00;;;;;;;2.91;82.84;95104.97;4988892;28;20046;-79
2021/12/07 12:53:34;;;;;;;3.78;1.63;;;;;;;2.71;82.12;95094.94;5009131;28;20046;-78
2021/12/07 12:56:00;;;;;;;5.47;1.70;;;;;;;2.82;84.16;95100.38;5009950;28;20049;-78
2021/12/07 12:58:33;;;;;;;5.15;1.65;;;;;;;3.08;81.46;95093.84;5011163;28;20042;-80
2021/12/07 13:01:20;;;;;;;5.05;1.45;;;;;;;3.01;81.57;95088.00;4984158;28;20062;-77
2021/12/07 13:04:06;;;;;;;6.50;2.25;;;;;;;2.65;84.23;95084.72;4990923;28;20050;-81
2021/12/07 13:06:31;;;;;;;3.88;1.63;;;;;;;2.92;81.58;95090.94;5008071;28;20042;-79
2021/12/07 13:08:57;;;;;;;2.70;1.58;;;;;;;2.95;80.08;95090.47;5008514;28;20111;-80
2021/12/07 13:11:40;;;;;;;4.30;1.73;;;;;;;2.59;81.45;95087.19;5013018;28;20038;-79
2021/12/07 13:14:27;;;;;;;4.47;1.77;;;;;;;2.82;80.86;95080.38;5005800;28;20038;-78
2021/12/07 13:16:54;;;;;;;5.20;1.75;;;;;;;2.62;79.77;95085.16;4990797;28;20033;-79
2021/12/07 13:19:20;;;;;;;4.43;1.55;;;;;;;2.68;78.86;95079.81;5009545;28;20050;-79
2021/12/07 13:21:48;;;;;;;6.80;1.60;;;;;;;2.56;77.80;95082.44;4994809;28;20039;-81